Gaithersburg, MD

12:44 PM EDT on October 21, 2014 (GMT -0400)
Washington Dulles International | Change Station
CLOSE
Current Station
Airport
Location: Dulles Airport,
Elevation: 322 ft
Nearby Weather Stations

Elev 322 ft 38.93 °N, 77.45 °W | Updated 52 minutes ago

Partly Cloudy
Partly Cloudy
65 °F
Feels Like 65 °F
N
5
Wind Variable Wind from WNW

Today
High -- | Low -- °F
--% Chance of Precip.
Yesterday
High -- | Low -- °F
Precip. -- in
7:24 AM 6:21 PM
Waning Crescent, 5% visible
Pressure 29.86 in
Visibility 10.0 miles
Clouds Few 4000 ft
Scattered Clouds 8000 ft
Scattered Clouds 25000 ft
Dew Point 48 °F
Humidity 54%
Rainfall 0.00 in
Snow Depth Not available.
UV 4 out of 12
Pollen 1.70 out of 12
Air Quality Not available.
Flu Activity Sporadic
METAR KIAD 211552Z 30004KT 10SM FEW040 SCT080 SCT250 18/09 A2986 RMK AO2 SLP111 T01830089

More Conditions Fewer Conditions

Pressure 29.86 in
Visibility 10.0 miles
Clouds Few 4000 ft
Scattered Clouds 8000 ft
Scattered Clouds 25000 ft
Dew Point 48 °F
Humidity 54%
Rainfall 0.00 in
Snow Depth Not available.
UV 4 out of 12
Pollen 1.70 out of 12
Air Quality Not available.
Flu Activity Sporadic
METAR KIAD 211552Z 30004KT 10SM FEW040 SCT080 SCT250 18/09 A2986 RMK AO2 SLP111 T01830089

More Conditions Fewer Conditions

10-Day Weather Forecast

Almanac

Astronomy

Oct. 21, 2014 Rise Set
Actual Time 7:24 AM EDT 6:21 PM EDT
Civil Twilight 6:57 AM EDT 6:48 PM EDT
Nautical Twilight 6:26 AM EDT 7:19 PM EDT
Astronomical Twilight 5:55 AM EDT 7:50 PM EDT
Moon 5:07 AM EDT 5:13 PM EDT
Length of Visible Light 11h 51m
Length of Day
10h 57m
Tomorrow will be 2m 24s shorter.
Waning Crescent, 5% of the Moon is Illuminated
Today
Waning Crescent
Oct 23
New
Oct 30
First Quarter
Nov 6
Full
Nov 14
Last Quarter

Today's Extremes

State Highs State Lows

Community

WunderPhotos

Upload Photos

1,763,712 photos uploaded!

Nearby

Snow Depth

Station Depth Elevation
No new snow has been reported.

Earthquake Activity

City Distance Mag. Time & Date
No recent earthquake activity has been reported nearby.
Minimum magnitude displayed is 2.5.

Coastal Water Temperatures

Place Temperature
Washington, DC 64.0 °F
Baltimore, MD 66.0 °F
Solomons Island, MD 66.0 °F

Nearby Weather Stations